sensor_id;sensor_type;location;lat;lon;timestamp;pressure;altitude;pressure_sealevel;temperature;humidity
32083;BME280;18597;48.328;7.932;2024-03-08T00:02:03;99342.28;;;1.56;100.00
32083;BME280;18597;48.328;7.932;2024-03-08T00:04:29;99339.56;;;1.57;100.00
32083;BME280;18597;48.328;7.932;2024-03-08T00:06:55;99341.72;;;1.33;100.00
32083;BME280;18597;48.328;7.932;2024-03-08T00:09:21;99342.53;;;1.18;100.00
32083;BME280;18597;48.328;7.932;2024-03-08T00:11:47;99337.13;;;1.21;100.00
32083;BME280;18597;48.328;7.932;2024-03-08T00:14:15;99337.25;;;1.18;100.00
32083;BME280;18597;48.328;7.932;2024-03-08T00:16:42;99339.25;;;1.13;100.00
32083;BME280;18597;48.328;7.932;2024-03-08T00:19:09;99336.41;;;1.18;100.00
32083;BME280;18597;48.328;7.932;2024-03-08T00:21:35;99338.81;;;1.22;100.00
32083;BME280;18597;48.328;7.932;2024-03-08T00:24:01;99334.50;;;1.21;100.00
32083;BME280;18597;48.328;7.932;2024-03-08T00:26:27;99321.56;;;1.17;100.00
32083;BME280;18597;48.328;7.932;2024-03-08T00:28:55;99317.41;;;1.28;100.00
32083;BME280;18597;48.328;7.932;2024-03-08T00:31:21;99318.75;;;1.37;100.00
32083;BME280;18597;48.328;7.932;2024-03-08T00:33:47;99311.38;;;1.44;100.00
32083;BME280;18597;48.328;7.932;2024-03-08T00:36:13;99314.25;;;1.39;100.00
32083;BME280;18597;48.328;7.932;2024-03-08T00:38:38;99313.34;;;1.56;100.00
32083;BME280;18597;48.328;7.932;2024-03-08T00:41:05;99307.81;;;1.27;100.00
32083;BME280;18597;48.328;7.932;2024-03-08T00:43:31;99307.63;;;1.48;100.00
32083;BME280;18597;48.328;7.932;2024-03-08T00:45:57;99296.97;;;1.82;100.00
32083;BME280;18597;48.328;7.932;2024-03-08T00:48:23;99291.72;;;1.82;100.00
32083;BME280;18597;48.328;7.932;2024-03-08T00:50:49;99293.84;;;1.43;100.00
32083;BME280;18597;48.328;7.932;2024-03-08T00:53:15;99303.66;;;1.56;100.00
32083;BME280;18597;48.328;7.932;2024-03-08T00:55:40;99287.00;;;1.56;100.00
32083;BME280;18597;48.328;7.932;2024-03-08T00:58:06;99284.88;;;1.62;100.00
32083;BME280;18597;48.328;7.932;2024-03-08T01:00:34;99285.84;;;1.77;100.00
32083;BME280;18597;48.328;7.932;2024-03-08T01:03:00;99286.16;;;1.71;100.00
32083;BME280;18597;48.328;7.932;2024-03-08T01:05:26;99283.97;;;1.79;100.00
32083;BME280;18597;48.328;7.932;2024-03-08T01:07:52;99284.72;;;1.65;100.00
32083;BME280;18597;48.328;7.932;2024-03-08T01:10:18;99278.25;;;1.71;100.00
32083;BME280;18597;48.328;7.932;2024-03-08T01:12:43;99269.59;;;2.01;100.00
32083;BME280;18597;48.328;7.932;2024-03-08T01:15:10;99274.13;;;1.99;100.00
32083;BME280;18597;48.328;7.932;2024-03-08T01:17:37;99271.72;;;1.78;100.00
32083;BME280;18597;48.328;7.932;2024-03-08T01:20:04;99267.91;;;1.68;100.00
32083;BME280;18597;48.328;7.932;2024-03-08T01:22:30;99271.13;;;1.73;100.00
32083;BME280;18597;48.328;7.932;2024-03-08T01:24:56;99265.94;;;1.72;100.00
32083;BME280;18597;48.328;7.932;2024-03-08T01:27:23;99255.94;;;1.62;100.00
32083;BME280;18597;48.328;7.932;2024-03-08T01:29:50;99260.34;;;1.78;100.00
32083;BME280;18597;48.328;7.932;2024-03-08T01:32:16;99257.38;;;1.68;100.00
32083;BME280;18597;48.328;7.932;2024-03-08T01:34:42;99253.53;;;1.58;100.00
32083;BME280;18597;48.328;7.932;2024-03-08T01:37:10;99256.25;;;1.88;100.00
32083;BME280;18597;48.328;7.932;2024-03-08T01:39:36;99249.47;;;1.52;100.00
32083;BME280;18597;48.328;7.932;2024-03-08T01:42:02;99239.19;;;1.79;100.00
32083;BME280;18597;48.328;7.932;2024-03-08T01:44:28;99243.84;;;1.58;100.00
32083;BME280;18597;48.328;7.932;2024-03-08T01:46:54;99233.25;;;1.76;100.00
32083;BME280;18597;48.328;7.932;2024-03-08T01:49:21;99238.63;;;1.74;100.00
32083;BME280;18597;48.328;7.932;2024-03-08T01:51:48;99233.69;;;1.68;100.00
32083;BME280;18597;48.328;7.932;2024-03-08T01:54:17;99230.00;;;1.71;100.00
32083;BME280;18597;48.328;7.932;2024-03-08T01:56:44;99224.41;;;1.61;100.00
32083;BME280;18597;48.328;7.932;2024-03-08T01:59:10;99225.94;;;1.65;100.00
32083;BME280;18597;48.328;7.932;2024-03-08T02:01:36;99226.72;;;1.67;100.00
32083;BME280;18597;48.328;7.932;2024-03-08T02:04:02;99222.72;;;1.76;100.00
32083;BME280;18597;48.328;7.932;2024-03-08T02:06:28;99220.84;;;1.62;100.00
32083;BME280;18597;48.328;7.932;2024-03-08T02:08:54;99211.16;;;1.47;100.00
32083;BME280;18597;48.328;7.932;2024-03-08T02:11:20;99217.19;;;1.33;100.00
32083;BME280;18597;48.328;7.932;2024-03-08T02:13:46;99208.75;;;1.26;100.00
32083;BME280;18597;48.328;7.932;2024-03-08T02:16:12;99210.97;;;1.34;100.00
32083;BME280;18597;48.328;7.932;2024-03-08T02:18:45;99212.84;;;1.32;100.00
32083;BME280;18597;48.328;7.932;2024-03-08T02:21:11;99207.00;;;1.43;100.00
32083;BME280;18597;48.328;7.932;2024-03-08T02:23:37;99208.94;;;1.23;100.00
32083;BME280;18597;48.328;7.932;2024-03-08T02:26:03;99203.81;;;1.04;100.00
32083;BME280;18597;48.328;7.932;2024-03-08T02:28:30;99204.66;;;1.05;100.00
32083;BME280;18597;48.328;7.932;2024-03-08T02:30:56;99202.63;;;1.10;100.00
32083;BME280;18597;48.328;7.932;2024-03-08T02:33:23;99196.53;;;1.09;100.00
32083;BME280;18597;48.328;7.932;2024-03-08T02:35:50;99195.06;;;1.04;100.00
32083;BME280;18597;48.328;7.932;2024-03-08T02:38:20;99191.16;;;0.95;100.00
32083;BME280;18597;48.328;7.932;2024-03-08T02:40:48;99182.59;;;0.92;100.00
32083;BME280;18597;48.328;7.932;2024-03-08T02:43:16;99184.66;;;0.69;100.00
32083;BME280;18597;48.328;7.932;2024-03-08T02:45:42;99185.09;;;0.77;100.00
32083;BME280;18597;48.328;7.932;2024-03-08T02:48:09;99183.66;;;0.88;100.00
32083;BME280;18597;48.328;7.932;2024-03-08T02:50:36;99174.75;;;0.90;100.00
32083;BME280;18597;48.328;7.932;2024-03-08T02:53:03;99177.47;;;0.89;100.00
32083;BME280;18597;48.328;7.932;2024-03-08T02:55:30;99174.84;;;0.89;100.00
32083;BME280;18597;48.328;7.932;2024-03-08T02:57:56;99169.41;;;0.59;100.00
32083;BME280;18597;48.328;7.932;2024-03-08T03:00:23;99168.94;;;0.68;100.00
32083;BME280;18597;48.328;7.932;2024-03-08T03:02:50;99160.41;;;0.80;100.00
32083;BME280;18597;48.328;7.932;2024-03-08T03:05:20;99164.06;;;0.77;100.00
32083;BME280;18597;48.328;7.932;2024-03-08T03:07:46;99153.63;;;0.76;100.00
32083;BME280;18597;48.328;7.932;2024-03-08T03:10:13;99163.13;;;0.78;100.00
32083;BME280;18597;48.328;7.932;2024-03-08T03:12:42;99155.91;;;0.49;100.00
32083;BME280;18597;48.328;7.932;2024-03-08T03:15:10;99153.38;;;0.47;100.00
32083;BME280;18597;48.328;7.932;2024-03-08T03:17:36;99145.22;;;0.69;100.00
32083;BME280;18597;48.328;7.932;2024-03-08T03:20:02;99154.66;;;0.89;100.00
32083;BME280;18597;48.328;7.932;2024-03-08T03:22:34;99145.22;;;0.69;100.00
32083;BME280;18597;48.328;7.932;2024-03-08T03:25:00;99141.06;;;0.48;100.00
32083;BME280;18597;48.328;7.932;2024-03-08T03:27:26;99150.03;;;0.44;100.00
32083;BME280;18597;48.328;7.932;2024-03-08T03:29:52;99145.41;;;0.49;100.00
32083;BME280;18597;48.328;7.932;2024-03-08T03:32:17;99137.31;;;0.69;100.00
32083;BME280;18597;48.328;7.932;2024-03-08T03:34:44;99139.94;;;0.69;100.00
32083;BME280;18597;48.328;7.932;2024-03-08T03:37:10;99131.19;;;0.53;100.00
32083;BME280;18597;48.328;7.932;2024-03-08T03:39:40;99136.91;;;0.44;100.00
32083;BME280;18597;48.328;7.932;2024-03-08T03:42:15;99140.19;;;0.65;100.00
32083;BME280;18597;48.328;7.932;2024-03-08T03:44:45;99138.19;;;0.52;100.00
32083;BME280;18597;48.328;7.932;2024-03-08T03:47:11;99140.75;;;0.54;100.00
32083;BME280;18597;48.328;7.932;2024-03-08T03:49:37;99134.66;;;0.36;100.00
32083;BME280;18597;48.328;7.932;2024-03-08T03:52:03;99142.00;;;0.30;100.00
32083;BME280;18597;48.328;7.932;2024-03-08T03:54:30;99131.81;;;0.41;100.00
32083;BME280;18597;48.328;7.932;2024-03-08T03:56:56;99135.25;;;0.59;100.00
32083;BME280;18597;48.328;7.932;2024-03-08T03:59:22;99136.50;;;0.51;100.00
32083;BME280;18597;48.328;7.932;2024-03-08T04:01:48;99129.41;;;0.53;100.00
32083;BME280;18597;48.328;7.932;2024-03-08T04:04:15;99131.97;;;0.71;100.00
32083;BME280;18597;48.328;7.932;2024-03-08T04:06:41;99123.59;;;0.80;100.00
32083;BME280;18597;48.328;7.932;2024-03-08T04:09:07;99132.81;;;0.71;100.00
32083;BME280;18597;48.328;7.932;2024-03-08T04:11:33;99136.88;;;0.61;100.00
32083;BME280;18597;48.328;7.932;2024-03-08T04:13:59;99131.25;;;0.51;100.00
32083;BME280;18597;48.328;7.932;2024-03-08T04:16:25;99132.75;;;0.40;100.00
32083;BME280;18597;48.328;7.932;2024-03-08T04:18:52;99127.81;;;0.34;100.00
32083;BME280;18597;48.328;7.932;2024-03-08T04:21:18;99123.97;;;0.57;100.00
32083;BME280;18597;48.328;7.932;2024-03-08T04:23:45;99123.03;;;0.58;100.00
32083;BME280;18597;48.328;7.932;2024-03-08T04:26:11;99117.50;;;0.46;100.00
32083;BME280;18597;48.328;7.932;2024-03-08T04:28:37;99115.41;;;0.53;100.00
32083;BME280;18597;48.328;7.932;2024-03-08T04:31:03;99121.97;;;0.62;100.00
32083;BME280;18597;48.328;7.932;2024-03-08T04:33:29;99129.66;;;0.65;100.00
32083;BME280;18597;48.328;7.932;2024-03-08T04:35:55;99121.28;;;0.41;100.00
32083;BME280;18597;48.328;7.932;2024-03-08T04:38:21;99121.22;;;0.42;100.00
32083;BME280;18597;48.328;7.932;2024-03-08T04:40:49;99122.16;;;0.41;100.00
32083;BME280;18597;48.328;7.932;2024-03-08T04:43:15;99128.03;;;0.46;100.00
32083;BME280;18597;48.328;7.932;2024-03-08T04:45:40;99111.91;;;0.52;100.00
32083;BME280;18597;48.328;7.932;2024-03-08T04:48:08;99122.19;;;0.57;100.00
32083;BME280;18597;48.328;7.932;2024-03-08T04:50:34;99118.47;;;0.61;100.00
32083;BME280;18597;48.328;7.932;2024-03-08T04:53:00;99119.38;;;0.60;100.00
32083;BME280;18597;48.328;7.932;2024-03-08T04:55:25;99116.53;;;0.32;100.00
32083;BME280;18597;48.328;7.932;2024-03-08T04:57:51;99112.47;;;0.42;100.00
32083;BME280;18597;48.328;7.932;2024-03-08T05:00:18;99104.28;;;0.48;100.00
32083;BME280;18597;48.328;7.932;2024-03-08T05:02:44;99107.09;;;0.27;100.00
32083;BME280;18597;48.328;7.932;2024-03-08T05:05:10;99107.09;;;0.27;100.00
32083;BME280;18597;48.328;7.932;2024-03-08T05:07:39;99101.41;;;0.02;100.00
32083;BME280;18597;48.328;7.932;2024-03-08T05:10:06;99098.75;;;-0.15;100.00
32083;BME280;18597;48.328;7.932;2024-03-08T05:12:33;99091.53;;;-0.28;100.00
32083;BME280;18597;48.328;7.932;2024-03-08T05:14:59;99087.44;;;-0.33;100.00
32083;BME280;18597;48.328;7.932;2024-03-08T05:17:25;99092.47;;;-0.29;100.00
32083;BME280;18597;48.328;7.932;2024-03-08T05:19:51;99099.69;;;-0.34;100.00
32083;BME280;18597;48.328;7.932;2024-03-08T05:22:17;99092.38;;;-0.27;100.00
32083;BME280;18597;48.328;7.932;2024-03-08T05:24:44;99093.34;;;-0.47;100.00
32083;BME280;18597;48.328;7.932;2024-03-08T05:27:10;99094.91;;;0.09;100.00
32083;BME280;18597;48.328;7.932;2024-03-08T05:29:36;99090.25;;;0.32;100.00
32083;BME280;18597;48.328;7.932;2024-03-08T05:32:03;99091.88;;;0.34;100.00
32083;BME280;18597;48.328;7.932;2024-03-08T05:34:30;99089.47;;;0.30;100.00
32083;BME280;18597;48.328;7.932;2024-03-08T05:36:55;99094.56;;;0.33;100.00
32083;BME280;18597;48.328;7.932;2024-03-08T05:39:23;99093.16;;;0.43;100.00
32083;BME280;18597;48.328;7.932;2024-03-08T05:41:49;99093.47;;;0.37;100.00
32083;BME280;18597;48.328;7.932;2024-03-08T05:44:16;99089.31;;;0.33;100.00
32083;BME280;18597;48.328;7.932;2024-03-08T05:46:42;99092.56;;;0.20;100.00
32083;BME280;18597;48.328;7.932;2024-03-08T05:49:09;99089.25;;;0.34;100.00
32083;BME280;18597;48.328;7.932;2024-03-08T05:51:37;99093.41;;;0.38;100.00
32083;BME280;18597;48.328;7.932;2024-03-08T05:54:07;99087.38;;;0.36;100.00
32083;BME280;18597;48.328;7.932;2024-03-08T05:56:34;99088.75;;;0.10;100.00
32083;BME280;18597;48.328;7.932;2024-03-08T05:59:01;99093.88;;;0.29;100.00
32083;BME280;18597;48.328;7.932;2024-03-08T06:01:28;99095.16;;;0.38;100.00
32083;BME280;18597;48.328;7.932;2024-03-08T06:03:55;99089.34;;;0.15;100.00
32083;BME280;18597;48.328;7.932;2024-03-08T06:06:23;99091.38;;;0.10;100.00
32083;BME280;18597;48.328;7.932;2024-03-08T06:08:50;99087.69;;;0.30;100.00
32083;BME280;18597;48.328;7.932;2024-03-08T06:11:18;99093.66;;;0.34;100.00
32083;BME280;18597;48.328;7.932;2024-03-08T06:13:44;99094.19;;;0.40;100.00
32083;BME280;18597;48.328;7.932;2024-03-08T06:16:10;99088.38;;;0.34;100.00
32083;BME280;18597;48.328;7.932;2024-03-08T06:18:37;99097.34;;;0.47;100.00
32083;BME280;18597;48.328;7.932;2024-03-08T06:21:04;99098.41;;;0.43;100.00
32083;BME280;18597;48.328;7.932;2024-03-08T06:23:33;99096.50;;;0.62;100.00
32083;BME280;18597;48.328;7.932;2024-03-08T06:25:59;99097.25;;;0.48;100.00
32083;BME280;18597;48.328;7.932;2024-03-08T06:28:25;99107.78;;;0.64;100.00
32083;BME280;18597;48.328;7.932;2024-03-08T06:30:51;99090.88;;;0.52;100.00
32083;BME280;18597;48.328;7.932;2024-03-08T06:33:17;99090.56;;;0.59;100.00
32083;BME280;18597;48.328;7.932;2024-03-08T06:35:43;99092.44;;;0.72;100.00
32083;BME280;18597;48.328;7.932;2024-03-08T06:38:09;99091.63;;;0.88;100.00
32083;BME280;18597;48.328;7.932;2024-03-08T06:40:37;99089.50;;;2.02;100.00
32083;BME280;18597;48.328;7.932;2024-03-08T06:43:03;99081.44;;;3.98;100.00
32083;BME280;18597;48.328;7.932;2024-03-08T06:45:32;99080.88;;;5.68;100.00
32083;BME280;18597;48.328;7.932;2024-03-08T06:47:58;99086.09;;;6.96;100.00
32083;BME280;18597;48.328;7.932;2024-03-08T06:50:23;99080.44;;;8.29;100.00
32083;BME280;18597;48.328;7.932;2024-03-08T06:52:49;99076.94;;;9.60;100.00
32083;BME280;18597;48.328;7.932;2024-03-08T06:55:20;99077.50;;;10.41;96.70
32083;BME280;18597;48.328;7.932;2024-03-08T06:57:46;99066.50;;;11.46;100.00
32083;BME280;18597;48.328;7.932;2024-03-08T07:00:12;99061.72;;;12.99;92.18
32083;BME280;18597;48.328;7.932;2024-03-08T07:02:44;99056.03;;;13.36;63.93
32083;BME280;18597;48.328;7.932;2024-03-08T07:05:11;99056.81;;;13.87;54.16
32083;BME280;18597;48.328;7.932;2024-03-08T07:07:37;99057.41;;;13.40;48.99
32083;BME280;18597;48.328;7.932;2024-03-08T07:10:04;99052.47;;;13.27;49.74
32083;BME280;18597;48.328;7.932;2024-03-08T07:12:30;99049.28;;;13.91;49.97
32083;BME280;18597;48.328;7.932;2024-03-08T07:14:56;99048.19;;;13.51;47.23
32083;BME280;18597;48.328;7.932;2024-03-08T07:17:21;99045.47;;;14.97;44.79
32083;BME280;18597;48.328;7.932;2024-03-08T07:19:47;99033.56;;;16.08;41.72
32083;BME280;18597;48.328;7.932;2024-03-08T07:22:13;99023.66;;;17.20;38.89
32083;BME280;18597;48.328;7.932;2024-03-08T07:24:40;99022.97;;;18.05;37.96
32083;BME280;18597;48.328;7.932;2024-03-08T07:27:23;99024.28;;;18.65;37.19
32083;BME280;18597;48.328;7.932;2024-03-08T07:29:49;99011.09;;;19.66;36.42
32083;BME280;18597;48.328;7.932;2024-03-08T07:32:15;99015.31;;;20.74;35.18
32083;BME280;18597;48.328;7.932;2024-03-08T07:34:48;99003.69;;;21.70;33.47
32083;BME280;18597;48.328;7.932;2024-03-08T07:37:16;99008.97;;;22.53;32.42
32083;BME280;18597;48.328;7.932;2024-03-08T07:39:43;99006.72;;;23.42;31.43
32083;BME280;18597;48.328;7.932;2024-03-08T07:42:09;98989.56;;;24.01;29.35
32083;BME280;18597;48.328;7.932;2024-03-08T07:44:36;98993.56;;;24.76;28.58
32083;BME280;18597;48.328;7.932;2024-03-08T07:47:02;98994.13;;;25.25;27.65
32083;BME280;18597;48.328;7.932;2024-03-08T07:49:29;98991.44;;;24.54;26.37
32083;BME280;18597;48.328;7.932;2024-03-08T07:51:56;98990.38;;;23.42;28.48
32083;BME280;18597;48.328;7.932;2024-03-08T07:54:23;98980.31;;;24.02;29.21
32083;BME280;18597;48.328;7.932;2024-03-08T07:56:49;98982.91;;;24.51;27.07
32083;BME280;18597;48.328;7.932;2024-03-08T07:59:16;98980.97;;;25.10;28.14
32083;BME280;18597;48.328;7.932;2024-03-08T08:01:42;98976.13;;;25.40;26.56
32083;BME280;18597;48.328;7.932;2024-03-08T08:04:10;98968.94;;;25.51;26.64
32083;BME280;18597;48.328;7.932;2024-03-08T08:06:38;98963.91;;;25.88;24.88
32083;BME280;18597;48.328;7.932;2024-03-08T08:09:07;98968.47;;;25.83;25.39
32083;BME280;18597;48.328;7.932;2024-03-08T08:11:41;98972.25;;;25.25;24.95
32083;BME280;18597;48.328;7.932;2024-03-08T08:14:09;98963.69;;;23.92;27.42
32083;BME280;18597;48.328;7.932;2024-03-08T08:16:36;98971.09;;;20.54;31.02
32083;BME280;18597;48.328;7.932;2024-03-08T08:19:03;98966.00;;;17.06;36.32
32083;BME280;18597;48.328;7.932;2024-03-08T08:21:34;98967.13;;;15.01;41.36
32083;BME280;18597;48.328;7.932;2024-03-08T08:24:03;98977.34;;;12.43;46.02
32083;BME280;18597;48.328;7.932;2024-03-08T08:26:29;98970.66;;;11.06;51.96
32083;BME280;18597;48.328;7.932;2024-03-08T08:28:55;98974.19;;;10.51;56.12
32083;BME280;18597;48.328;7.932;2024-03-08T08:31:21;98965.47;;;9.93;59.09
32083;BME280;18597;48.328;7.932;2024-03-08T08:33:47;98969.22;;;8.94;68.96
32083;BME280;18597;48.328;7.932;2024-03-08T08:36:14;98974.00;;;8.50;72.30
32083;BME280;18597;48.328;7.932;2024-03-08T08:38:40;98962.91;;;7.72;78.56
32083;BME280;18597;48.328;7.932;2024-03-08T08:41:10;98967.50;;;7.49;83.12
32083;BME280;18597;48.328;7.932;2024-03-08T08:43:36;98960.53;;;7.37;85.83
32083;BME280;18597;48.328;7.932;2024-03-08T08:46:02;98954.78;;;7.21;91.28
32083;BME280;18597;48.328;7.932;2024-03-08T08:48:30;98956.97;;;6.84;94.41
32083;BME280;18597;48.328;7.932;2024-03-08T08:50:56;98953.88;;;7.11;97.20
32083;BME280;18597;48.328;7.932;2024-03-08T08:53:22;98956.13;;;7.15;94.77
32083;BME280;18597;48.328;7.932;2024-03-08T08:55:48;98949.69;;;7.29;93.41
32083;BME280;18597;48.328;7.932;2024-03-08T08:58:14;98943.38;;;7.41;92.24
32083;BME280;18597;48.328;7.932;2024-03-08T09:00:40;98936.16;;;7.53;93.33
32083;BME280;18597;48.328;7.932;2024-03-08T09:03:06;98940.84;;;7.61;91.36
32083;BME280;18597;48.328;7.932;2024-03-08T09:05:32;98948.31;;;7.67;87.42
32083;BME280;18597;48.328;7.932;2024-03-08T09:07:59;98952.53;;;7.48;91.24
32083;BME280;18597;48.328;7.932;2024-03-08T09:10:26;98948.31;;;7.14;90.36
32083;BME280;18597;48.328;7.932;2024-03-08T09:12:53;98941.31;;;7.02;92.65
32083;BME280;18597;48.328;7.932;2024-03-08T09:15:19;98949.28;;;7.13;90.79
32083;BME280;18597;48.328;7.932;2024-03-08T09:17:46;98944.38;;;6.97;90.18
32083;BME280;18597;48.328;7.932;2024-03-08T09:20:14;98935.53;;;7.08;94.25
32083;BME280;18597;48.328;7.932;2024-03-08T09:22:43;98943.97;;;7.13;91.01
32083;BME280;18597;48.328;7.932;2024-03-08T09:25:09;98933.84;;;7.07;89.77
32083;BME280;18597;48.328;7.932;2024-03-08T09:27:35;98936.50;;;7.07;86.81
32083;BME280;18597;48.328;7.932;2024-03-08T09:30:02;98938.16;;;7.19;89.93
32083;BME280;18597;48.328;7.932;2024-03-08T09:32:28;98934.72;;;7.28;88.07
32083;BME280;18597;48.328;7.932;2024-03-08T09:34:53;98938.09;;;7.30;86.14
32083;BME280;18597;48.328;7.932;2024-03-08T09:37:21;98935.44;;;7.30;90.03
32083;BME280;18597;48.328;7.932;2024-03-08T09:39:46;98928.97;;;7.44;90.98
32083;BME280;18597;48.328;7.932;2024-03-08T09:42:12;98930.84;;;7.53;85.47
32083;BME280;18597;48.328;7.932;2024-03-08T09:44:45;98925.69;;;7.72;85.14
32083;BME280;18597;48.328;7.932;2024-03-08T09:47:14;98923.88;;;7.73;79.85
32083;BME280;18597;48.328;7.932;2024-03-08T09:49:41;98922.38;;;7.59;81.02
32083;BME280;18597;48.328;7.932;2024-03-08T09:52:08;98921.47;;;7.49;78.66
32083;BME280;18597;48.328;7.932;2024-03-08T09:54:35;98913.19;;;7.63;85.50
32083;BME280;18597;48.328;7.932;2024-03-08T09:57:01;98905.69;;;7.78;83.00
32083;BME280;18597;48.328;7.932;2024-03-08T09:59:30;98897.13;;;7.95;81.62
32083;BME280;18597;48.328;7.932;2024-03-08T10:02:15;98891.28;;;8.01;82.33
32083;BME280;18597;48.328;7.932;2024-03-08T10:04:41;98877.88;;;8.13;77.70
32083;BME280;18597;48.328;7.932;2024-03-08T10:07:08;98889.28;;;8.24;77.84
32083;BME280;18597;48.328;7.932;2024-03-08T10:09:34;98891.16;;;8.13;77.14
32083;BME280;18597;48.328;7.932;2024-03-08T10:12:01;98882.50;;;8.11;75.85
32083;BME280;18597;48.328;7.932;2024-03-08T10:14:27;98875.66;;;8.18;79.77
32083;BME280;18597;48.328;7.932;2024-03-08T10:16:53;98868.72;;;8.36;81.30
32083;BME280;18597;48.328;7.932;2024-03-08T10:19:20;98866.09;;;8.46;73.81
32083;BME280;18597;48.328;7.932;2024-03-08T10:21:50;98868.63;;;8.47;79.22
32083;BME280;18597;48.328;7.932;2024-03-08T10:24:18;98868.50;;;8.68;77.47
32083;BME280;18597;48.328;7.932;2024-03-08T10:26:44;98854.66;;;8.74;75.96
32083;BME280;18597;48.328;7.932;2024-03-08T10:29:10;98857.91;;;8.97;77.26
32083;BME280;18597;48.328;7.932;2024-03-08T10:31:43;98854.13;;;9.09;75.00
32083;BME280;18597;48.328;7.932;2024-03-08T10:34:10;98845.56;;;8.96;76.86
32083;BME280;18597;48.328;7.932;2024-03-08T10:36:36;98853.00;;;8.93;72.04
32083;BME280;18597;48.328;7.932;2024-03-08T10:39:15;98848.38;;;8.85;71.89
32083;BME280;18597;48.328;7.932;2024-03-08T10:41:53;98844.31;;;9.00;73.84
32083;BME280;18597;48.328;7.932;2024-03-08T10:47:26;98843.03;;;9.24;69.08
32083;BME280;18597;48.328;7.932;2024-03-08T10:50:19;98843.28;;;9.40;71.63
32083;BME280;18597;48.328;7.932;2024-03-08T10:52:51;98841.06;;;9.45;69.49
32083;BME280;18597;48.328;7.932;2024-03-08T10:55:19;98844.69;;;9.54;66.46
32083;BME280;18597;48.328;7.932;2024-03-08T10:57:46;98835.56;;;9.47;70.02
32083;BME280;18597;48.328;7.932;2024-03-08T11:00:14;98828.69;;;9.54;67.59
32083;BME280;18597;48.328;7.932;2024-03-08T11:02:47;98830.66;;;9.42;65.38
32083;BME280;18597;48.328;7.932;2024-03-08T11:05:40;98825.81;;;9.65;68.35
32083;BME280;18597;48.328;7.932;2024-03-08T11:08:22;98829.84;;;9.79;66.12
32083;BME280;18597;48.328;7.932;2024-03-08T11:10:53;98829.44;;;9.73;66.65
32083;BME280;18597;48.328;7.932;2024-03-08T11:13:41;98822.38;;;9.82;65.57
32083;BME280;18597;48.328;7.932;2024-03-08T11:16:09;98814.75;;;9.97;66.98
32083;BME280;18597;48.328;7.932;2024-03-08T11:18:36;98811.97;;;9.98;67.53
32083;BME280;18597;48.328;7.932;2024-03-08T11:21:04;98813.75;;;10.08;64.46
32083;BME280;18597;48.328;7.932;2024-03-08T11:23:33;98811.91;;;10.08;63.63
32083;BME280;18597;48.328;7.932;2024-03-08T11:25:59;98795.69;;;10.19;63.51
32083;BME280;18597;48.328;7.932;2024-03-08T11:28:25;98795.69;;;10.29;67.31
32083;BME280;18597;48.328;7.932;2024-03-08T11:33:36;98778.59;;;10.40;61.41
32083;BME280;18597;48.328;7.932;2024-03-08T11:36:19;98777.59;;;10.41;62.71
32083;BME280;18597;48.328;7.932;2024-03-08T11:38:48;98775.94;;;10.57;63.47
32083;BME280;18597;48.328;7.932;2024-03-08T11:41:18;98762.13;;;10.62;63.77
32083;BME280;18597;48.328;7.932;2024-03-08T11:43:46;98757.78;;;10.61;62.85
32083;BME280;18597;48.328;7.932;2024-03-08T11:46:14;98749.91;;;10.42;62.05
32083;BME280;18597;48.328;7.932;2024-03-08T11:48:41;98752.44;;;10.43;63.80
32083;BME280;18597;48.328;7.932;2024-03-08T11:51:11;98748.09;;;10.60;65.23
32083;BME280;18597;48.328;7.932;2024-03-08T11:53:38;98743.50;;;10.70;65.96
32083;BME280;18597;48.328;7.932;2024-03-08T11:56:13;98748.84;;;10.70;67.54
32083;BME280;18597;48.328;7.932;2024-03-08T11:58:40;98739.66;;;10.73;67.36
32083;BME280;18597;48.328;7.932;2024-03-08T12:01:07;98734.28;;;10.82;66.42
32083;BME280;18597;48.328;7.932;2024-03-08T12:03:42;98735.38;;;10.98;65.20
32083;BME280;18597;48.328;7.932;2024-03-08T12:06:12;98726.44;;;11.07;65.28
32083;BME280;18597;48.328;7.932;2024-03-08T12:08:40;98731.84;;;11.15;63.56
32083;BME280;18597;48.328;7.932;2024-03-08T12:11:07;98726.16;;;11.18;62.68
32083;BME280;18597;48.328;7.932;2024-03-08T12:13:35;98720.56;;;11.29;61.64
32083;BME280;18597;48.328;7.932;2024-03-08T12:16:03;98708.44;;;10.91;59.94
32083;BME280;18597;48.328;7.932;2024-03-08T12:18:34;98708.66;;;10.98;62.52
32083;BME280;18597;48.328;7.932;2024-03-08T12:21:15;98692.53;;;11.07;63.96
32083;BME280;18597;48.328;7.932;2024-03-08T12:23:46;98696.28;;;11.23;61.30
32083;BME280;18597;48.328;7.932;2024-03-08T12:26:23;98685.22;;;11.18;61.59
32083;BME280;18597;48.328;7.932;2024-03-08T12:28:49;98678.63;;;11.30;60.26
32083;BME280;18597;48.328;7.932;2024-03-08T12:31:16;98675.31;;;11.36;60.88
32083;BME280;18597;48.328;7.932;2024-03-08T12:33:51;98674.88;;;11.49;58.50
32083;BME280;18597;48.328;7.932;2024-03-08T12:36:18;98664.53;;;11.54;58.50
32083;BME280;18597;48.328;7.932;2024-03-08T12:38:46;98661.88;;;11.62;56.58
32083;BME280;18597;48.328;7.932;2024-03-08T12:41:14;98653.84;;;11.62;55.64
32083;BME280;18597;48.328;7.932;2024-03-08T12:43:41;98653.50;;;11.49;57.73
32083;BME280;18597;48.328;7.932;2024-03-08T12:46:07;98653.44;;;11.40;56.96
32083;BME280;18597;48.328;7.932;2024-03-08T12:48:35;98643.72;;;11.39;59.92
32083;BME280;18597;48.328;7.932;2024-03-08T12:51:02;98644.50;;;11.58;58.46
32083;BME280;18597;48.328;7.932;2024-03-08T12:53:28;98640.28;;;11.55;57.91
32083;BME280;18597;48.328;7.932;2024-03-08T12:55:55;98639.66;;;11.61;56.40
32083;BME280;18597;48.328;7.932;2024-03-08T12:58:22;98630.34;;;11.74;56.45
32083;BME280;18597;48.328;7.932;2024-03-08T13:00:48;98629.97;;;11.68;55.11
32083;BME280;18597;48.328;7.932;2024-03-08T13:03:14;98612.09;;;11.69;55.30
32083;BME280;18597;48.328;7.932;2024-03-08T13:05:40;98614.16;;;11.83;56.79
32083;BME280;18597;48.328;7.932;2024-03-08T13:08:08;98599.13;;;11.90;56.78
32083;BME280;18597;48.328;7.932;2024-03-08T13:10:42;98597.09;;;11.84;55.77